createdAt,value
2023-03-07T00:01:00.788Z,3.58
2023-03-07T00:11:02.083Z,3.62
2023-03-07T00:21:03.300Z,3.69
2023-03-07T00:31:04.550Z,3.71
2023-03-07T00:41:05.840Z,3.76
2023-03-07T00:51:07.332Z,3.77
2023-03-07T01:01:09.725Z,3.69
2023-03-07T01:11:11.024Z,3.59
2023-03-07T01:21:12.324Z,3.53
2023-03-07T01:31:13.575Z,3.46
2023-03-07T01:41:14.792Z,3.24
2023-03-07T01:51:16.173Z,3.03
2023-03-07T02:01:17.469Z,2.85
2023-03-07T02:11:18.840Z,2.66
2023-03-07T02:21:20.131Z,2.53
2023-03-07T02:31:21.643Z,2.60
2023-03-07T02:41:22.918Z,2.39
2023-03-07T02:51:24.836Z,2.31
2023-03-07T03:01:26.261Z,2.33
2023-03-07T03:11:30.085Z,2.30
2023-03-07T03:21:31.381Z,2.41
2023-03-07T03:31:32.838Z,2.46
2023-03-07T03:41:34.130Z,2.55
2023-03-07T03:51:35.755Z,2.65
2023-03-07T04:01:37.098Z,2.59
2023-03-07T04:11:39.788Z,2.76
2023-03-07T04:21:41.102Z,2.72
2023-03-07T04:31:42.398Z,2.90
2023-03-07T04:41:43.706Z,2.95
2023-03-07T04:51:45.100Z,3.00
2023-03-07T05:01:46.786Z,3.04
2023-03-07T05:11:48.077Z,3.04
2023-03-07T05:21:49.425Z,3.12
2023-03-07T05:31:50.742Z,3.17
2023-03-07T05:41:52.045Z,3.21
2023-03-07T05:51:55.314Z,3.36
2023-03-07T06:01:56.590Z,3.32
2023-03-07T06:11:57.915Z,3.27
2023-03-07T06:21:59.385Z,3.37
2023-03-07T06:32:00.688Z,3.38
2023-03-07T06:42:01.964Z,3.57
2023-03-07T06:52:03.462Z,3.52
2023-03-07T07:02:04.926Z,3.61
2023-03-07T07:12:06.385Z,3.67
2023-03-07T07:22:12.077Z,3.93
2023-03-07T07:32:13.458Z,4.08
2023-03-07T07:42:14.847Z,4.21
2023-03-07T07:52:16.322Z,4.45
2023-03-07T08:02:17.585Z,4.56
2023-03-07T08:12:18.870Z,4.80
2023-03-07T08:22:20.121Z,5.11
2023-03-07T08:32:21.419Z,5.34
2023-03-07T08:42:22.704Z,5.45
2023-03-07T08:52:24.329Z,5.34
2023-03-07T09:02:25.584Z,5.36
2023-03-07T09:12:26.834Z,5.54
2023-03-07T09:22:28.107Z,5.63
2023-03-07T09:32:29.424Z,5.97
2023-03-07T09:42:30.747Z,5.99
2023-03-07T09:52:32.166Z,6.38
2023-03-07T10:02:33.449Z,6.41
2023-03-07T10:12:34.725Z,6.69
2023-03-07T10:22:35.977Z,6.46
2023-03-07T10:32:37.260Z,6.86
2023-03-07T10:42:40.994Z,7.06
2023-03-07T10:52:42.323Z,6.79
2023-03-07T11:02:45.367Z,7.14
2023-03-07T11:12:46.700Z,7.31
2023-03-07T11:22:47.945Z,7.09
2023-03-07T11:32:49.235Z,7.41
2023-03-07T11:42:50.523Z,7.68
2023-03-07T11:52:53.167Z,7.63
2023-03-07T12:02:54.489Z,7.52
2023-03-07T12:12:55.831Z,7.53
2023-03-07T12:22:57.128Z,7.57
2023-03-07T12:32:58.550Z,7.46
2023-03-07T12:42:59.851Z,7.31
2023-03-07T12:53:01.296Z,7.68
2023-03-07T13:03:02.587Z,8.05
2023-03-07T13:13:03.827Z,8.02
2023-03-07T13:23:05.107Z,8.08
2023-03-07T13:33:07.395Z,8.36
2023-03-07T13:43:08.645Z,8.07
2023-03-07T13:53:10.088Z,7.68
2023-03-07T14:03:12.399Z,7.69
2023-03-07T14:13:13.833Z,7.48
2023-03-07T14:23:15.122Z,7.34
2023-03-07T14:33:16.387Z,7.33
2023-03-07T14:43:17.630Z,7.28
2023-03-07T14:53:19.134Z,7.10
2023-03-07T15:03:20.394Z,6.92
2023-03-07T15:13:21.845Z,7.24
2023-03-07T15:23:23.989Z,7.18
2023-03-07T15:33:25.356Z,7.54
2023-03-07T15:43:26.680Z,7.38
2023-03-07T15:53:28.148Z,6.98
2023-03-07T16:03:29.563Z,6.95
2023-03-07T16:13:30.985Z,7.02
2023-03-07T16:23:32.408Z,6.92
2023-03-07T16:33:33.772Z,6.70
2023-03-07T16:43:35.099Z,6.74
2023-03-07T16:53:36.483Z,6.68
2023-03-07T17:03:37.733Z,6.64
2023-03-07T17:13:38.987Z,6.51
2023-03-07T17:23:40.301Z,6.51
2023-03-07T17:33:41.575Z,6.38
2023-03-07T17:43:42.936Z,6.39
2023-03-07T17:53:44.735Z,6.39
2023-03-07T18:03:46.017Z,6.38
2023-03-07T18:13:47.611Z,6.32
2023-03-07T18:23:49.620Z,6.19
2023-03-07T18:33:51.276Z,6.21
2023-03-07T18:43:52.534Z,6.13
2023-03-07T18:53:54.060Z,6.19
2023-03-07T19:03:55.494Z,6.10
2023-03-07T19:13:56.778Z,6.08
2023-03-07T19:23:58.089Z,6.10
2023-03-07T19:33:59.600Z,6.01
2023-03-07T19:44:01.390Z,5.99
2023-03-07T19:54:04.236Z,6.01
2023-03-07T20:04:07.399Z,5.91
2023-03-07T20:14:08.765Z,5.97
2023-03-07T20:24:10.222Z,5.79
2023-03-07T20:34:11.465Z,5.79
2023-03-07T20:44:12.855Z,5.78
2023-03-07T20:54:14.296Z,5.59
2023-03-07T21:04:17.687Z,5.45
2023-03-07T21:14:19.524Z,5.41
2023-03-07T21:24:20.846Z,5.49
2023-03-07T21:34:22.097Z,5.43
2023-03-07T21:44:23.399Z,5.39
2023-03-07T21:54:24.858Z,5.48
2023-03-07T22:04:26.153Z,5.51
2023-03-07T22:14:27.414Z,5.43
2023-03-07T22:24:28.659Z,5.42
2023-03-07T22:34:29.980Z,5.46
2023-03-07T22:44:31.280Z,5.47
2023-03-07T22:54:33.413Z,5.54
2023-03-07T23:04:34.709Z,5.53
2023-03-07T23:14:35.994Z,5.64
2023-03-07T23:24:37.264Z,5.55
2023-03-07T23:34:38.587Z,5.49
2023-03-07T23:44:40.188Z,5.50
2023-03-07T23:54:42.013Z,5.38
